createdAt,value
2023-04-05T00:02:14.113Z,99.90
2023-04-05T00:04:50.113Z,99.90
2023-04-05T00:07:17.382Z,99.90
2023-04-05T00:09:44.008Z,99.90
2023-04-05T00:12:10.862Z,99.90
2023-04-05T00:14:37.485Z,99.90
2023-04-05T00:17:04.260Z,99.90
2023-04-05T00:19:33.705Z,99.90
2023-04-05T00:22:00.702Z,99.90
2023-04-05T00:24:29.252Z,99.90
2023-04-05T00:26:56.572Z,99.90
2023-04-05T00:29:23.341Z,99.90
2023-04-05T00:31:50.299Z,99.90
2023-04-05T00:34:16.934Z,99.90
2023-04-05T00:36:43.432Z,99.90
2023-04-05T00:39:10.197Z,99.90
2023-04-05T00:41:36.721Z,99.90
2023-04-05T00:44:03.874Z,99.90
2023-04-05T00:46:33.504Z,99.90
2023-04-05T00:49:00.120Z,99.90
2023-04-05T00:51:26.774Z,99.90
2023-04-05T00:53:53.797Z,99.90
2023-04-05T00:56:21.629Z,99.90
2023-04-05T00:58:51.669Z,99.90
2023-04-05T01:01:23.644Z,99.90
2023-04-05T01:03:55.947Z,99.90
2023-04-05T01:06:53.126Z,99.90
2023-04-05T01:09:45.642Z,99.90
2023-04-05T01:12:20.771Z,99.90
2023-04-05T01:14:52.561Z,99.90
2023-04-05T01:17:23.760Z,99.90
2023-04-05T01:19:58.664Z,99.90
2023-04-05T01:22:53.174Z,99.90
2023-04-05T01:25:59.940Z,99.90
2023-04-05T01:28:38.650Z,99.90
2023-04-05T01:31:39.080Z,99.90
2023-04-05T01:34:21.606Z,99.90
2023-04-05T01:37:01.447Z,99.90
2023-04-05T01:39:29.747Z,99.90
2023-04-05T01:42:03.318Z,99.90
2023-04-05T01:44:30.010Z,99.90
2023-04-05T01:46:56.830Z,99.90
2023-04-05T01:49:24.558Z,99.90
2023-04-05T01:51:51.187Z,99.90
2023-04-05T01:54:17.747Z,99.90
2023-04-05T01:56:44.511Z,99.90
2023-04-05T01:59:11.119Z,99.90
2023-04-05T02:01:37.692Z,99.90
2023-04-05T02:04:04.260Z,99.90
2023-04-05T02:06:32.090Z,99.90
2023-04-05T02:08:58.598Z,99.90
2023-04-05T02:11:25.272Z,99.90
2023-04-05T02:13:51.818Z,99.90
2023-04-05T02:16:18.651Z,99.90
2023-04-05T02:18:50.595Z,99.90
2023-04-05T02:21:17.138Z,99.90
2023-04-05T02:23:44.196Z,99.90
2023-04-05T02:26:10.697Z,99.90
2023-04-05T02:28:37.241Z,99.90
2023-04-05T02:31:09.982Z,99.90
2023-04-05T02:33:36.979Z,99.90
2023-04-05T02:36:09.467Z,99.90
2023-04-05T02:38:36.161Z,99.90
2023-04-05T02:41:03.146Z,99.90
2023-04-05T02:43:29.660Z,99.90
2023-04-05T02:45:56.290Z,99.90
2023-04-05T02:48:22.821Z,99.90
2023-04-05T02:50:50.871Z,99.90
2023-04-05T02:53:18.561Z,99.90
2023-04-05T02:55:55.680Z,99.90
2023-04-05T02:58:23.497Z,99.90
2023-04-05T03:00:51.738Z,99.90
2023-04-05T03:03:19.496Z,99.90
2023-04-05T03:05:48.444Z,99.90
2023-04-05T03:08:19.398Z,99.90
2023-04-05T03:10:46.619Z,99.90
2023-04-05T03:13:14.314Z,99.90
2023-04-05T03:15:42.207Z,99.90
2023-04-05T03:18:09.490Z,99.90
2023-04-05T03:20:40.403Z,99.90
2023-04-05T03:23:08.768Z,99.90
2023-04-05T03:25:37.009Z,99.90
2023-04-05T03:28:05.556Z,99.90
2023-04-05T03:30:33.112Z,99.90
2023-04-05T03:33:03.042Z,99.90
2023-04-05T03:35:30.106Z,99.90
2023-04-05T03:37:57.170Z,99.90
2023-04-05T03:40:24.426Z,99.90
2023-04-05T03:42:51.124Z,99.90
2023-04-05T03:45:23.264Z,99.90
2023-04-05T03:47:51.210Z,99.90
2023-04-05T03:50:17.897Z,99.90
2023-04-05T03:52:44.740Z,99.90
2023-04-05T03:55:11.296Z,99.90
2023-04-05T03:57:38.803Z,99.90
2023-04-05T04:00:14.011Z,99.90
2023-04-05T04:02:45.264Z,99.90
2023-04-05T04:05:12.459Z,99.90
2023-04-05T04:07:39.155Z,99.90
2023-04-05T04:10:06.475Z,99.90
2023-04-05T04:12:32.990Z,99.90
2023-04-05T04:14:59.642Z,99.90
2023-04-05T04:17:31.316Z,99.90
2023-04-05T04:19:58.702Z,99.90
2023-04-05T04:22:32.984Z,99.90
2023-04-05T04:25:02.625Z,99.90
2023-04-05T04:27:30.321Z,99.90
2023-04-05T04:30:01.802Z,99.90
2023-04-05T04:32:49.161Z,99.90
2023-04-05T04:35:20.793Z,99.90
2023-04-05T04:37:52.700Z,99.90
2023-04-05T04:40:19.261Z,99.90
2023-04-05T04:42:48.854Z,99.90
2023-04-05T04:45:19.499Z,99.90
2023-04-05T04:47:47.962Z,99.90
2023-04-05T04:50:15.899Z,99.90
2023-04-05T04:52:42.774Z,99.90
2023-04-05T04:55:10.061Z,99.90
2023-04-05T04:57:36.643Z,99.90
2023-04-05T05:00:07.865Z,99.90
2023-04-05T05:02:34.646Z,99.90
2023-04-05T05:05:01.226Z,99.90
2023-04-05T05:07:28.571Z,99.90
2023-04-05T05:09:55.291Z,99.90
2023-04-05T05:12:22.293Z,99.90
2023-04-05T05:14:48.795Z,99.90
2023-04-05T05:17:15.358Z,99.90
2023-04-05T05:19:41.923Z,99.90
2023-04-05T05:22:08.553Z,99.90
2023-04-05T05:24:35.070Z,99.90
2023-04-05T05:27:01.643Z,99.90
2023-04-05T05:29:28.346Z,99.90
2023-04-05T05:31:55.247Z,99.90
2023-04-05T05:34:22.187Z,99.90
2023-04-05T05:36:48.927Z,99.90
2023-04-05T05:39:15.876Z,99.90
2023-04-05T05:41:42.452Z,99.90
2023-04-05T05:44:08.970Z,99.90
2023-04-05T05:46:35.692Z,99.90
2023-04-05T05:49:02.290Z,99.90
2023-04-05T05:51:28.821Z,99.90
2023-04-05T05:53:55.666Z,99.90
2023-04-05T05:56:22.490Z,99.90
2023-04-05T05:58:49.139Z,99.90
2023-04-05T06:01:16.153Z,99.90
2023-04-05T06:03:42.852Z,99.90
2023-04-05T06:06:11.044Z,99.90
2023-04-05T06:08:38.056Z,99.90
2023-04-05T06:11:04.811Z,99.90
2023-04-05T06:13:31.373Z,99.90
2023-04-05T06:16:00.953Z,99.90
2023-04-05T06:18:27.498Z,99.90
2023-04-05T06:20:55.697Z,99.90
2023-04-05T06:23:22.347Z,99.90
2023-04-05T06:25:49.142Z,99.90
2023-04-05T06:28:15.717Z,99.90
2023-04-05T06:30:42.477Z,99.90
2023-04-05T06:33:09.166Z,99.90
2023-04-05T06:35:35.781Z,99.90
2023-04-05T06:38:02.367Z,99.90
2023-04-05T06:40:29.275Z,99.90
2023-04-05T06:42:56.115Z,99.90
2023-04-05T06:45:23.041Z,99.90
2023-04-05T06:47:49.680Z,99.90
2023-04-05T06:50:16.267Z,99.90
2023-04-05T06:52:42.787Z,99.90
2023-04-05T06:55:09.572Z,99.90
2023-04-05T06:57:36.089Z,99.90
2023-04-05T07:00:08.524Z,99.90
2023-04-05T07:02:36.284Z,99.90
2023-04-05T07:05:05.610Z,99.90
2023-04-05T07:07:39.682Z,99.90
2023-04-05T07:10:06.751Z,99.90
2023-04-05T07:12:33.292Z,99.90
2023-04-05T07:15:00.272Z,99.90
2023-04-05T07:17:27.054Z,99.90
2023-04-05T07:19:53.638Z,99.90
2023-04-05T07:22:20.422Z,99.90
2023-04-05T07:24:46.996Z,99.90
2023-04-05T07:27:13.540Z,99.90
2023-04-05T07:29:44.524Z,99.90
2023-04-05T07:32:11.950Z,99.90
2023-04-05T07:34:38.547Z,99.90
2023-04-05T07:37:06.341Z,99.90
2023-04-05T07:39:33.274Z,99.90
2023-04-05T07:41:59.817Z,99.90
2023-04-05T07:44:26.549Z,99.90
2023-04-05T07:46:53.165Z,99.90
2023-04-05T07:49:25.288Z,99.90
2023-04-05T07:51:55.576Z,99.90
2023-04-05T07:54:22.158Z,99.90
2023-04-05T07:56:51.662Z,99.90
2023-04-05T07:59:18.309Z,99.90
2023-04-05T08:01:44.872Z,99.90
2023-04-05T08:04:11.613Z,99.70
2023-04-05T08:06:38.453Z,98.40
2023-04-05T08:09:05.727Z,98.00
2023-04-05T08:11:33.056Z,97.50
2023-04-05T08:13:59.623Z,98.40
2023-04-05T08:16:26.268Z,96.60
2023-04-05T08:18:52.761Z,96.80
2023-04-05T08:21:19.286Z,96.10
2023-04-05T08:23:46.282Z,96.70
2023-04-05T08:26:12.854Z,96.70
2023-04-05T08:28:39.361Z,96.00
2023-04-05T08:31:06.004Z,95.20
2023-04-05T08:33:32.554Z,94.40
2023-04-05T08:36:07.339Z,93.30
2023-04-05T08:38:34.385Z,92.60
2023-04-05T08:41:22.730Z,92.50
2023-04-05T08:44:02.188Z,91.50
2023-04-05T08:46:33.661Z,91.90
2023-04-05T08:49:04.015Z,93.00
2023-04-05T08:51:31.029Z,92.80
2023-04-05T08:53:59.738Z,92.50
2023-04-05T08:56:31.291Z,91.60
2023-04-05T08:59:01.612Z,91.50
2023-04-05T09:01:30.885Z,91.70
2023-04-05T09:04:01.393Z,90.30
2023-04-05T09:06:28.652Z,91.00
2023-04-05T09:08:58.248Z,91.40
2023-04-05T09:11:25.584Z,90.50
2023-04-05T09:13:52.438Z,89.50
2023-04-05T09:16:20.124Z,89.60
2023-04-05T09:18:46.848Z,90.20
2023-04-05T09:21:13.512Z,90.40
2023-04-05T09:23:52.616Z,88.70
2023-04-05T09:26:21.464Z,88.90
2023-04-05T09:28:48.187Z,88.50
2023-04-05T09:31:35.503Z,87.30
2023-04-05T09:34:05.813Z,84.90
2023-04-05T09:36:36.234Z,84.90
2023-04-05T09:39:09.634Z,86.90
2023-04-05T09:41:36.836Z,86.50
2023-04-05T09:44:03.829Z,87.00
2023-04-05T09:46:37.072Z,88.10
2023-04-05T09:49:04.113Z,84.20
2023-04-05T09:51:35.583Z,86.00
2023-04-05T09:54:10.567Z,83.70
2023-04-05T09:56:40.322Z,83.10
2023-04-05T09:59:13.181Z,82.40
2023-04-05T10:01:43.940Z,83.90
2023-04-05T10:04:10.999Z,81.40
2023-04-05T10:06:42.569Z,81.00
2023-04-05T10:09:11.278Z,80.50
2023-04-05T10:11:38.883Z,81.10
2023-04-05T10:14:08.351Z,79.90
2023-04-05T10:16:58.235Z,80.70
2023-04-05T10:19:32.871Z,76.40
2023-04-05T10:22:02.371Z,76.90
2023-04-05T10:24:40.442Z,75.90
2023-04-05T10:27:21.378Z,76.10
2023-04-05T10:30:13.804Z,73.90
2023-04-05T10:33:17.849Z,73.70
2023-04-05T10:35:55.298Z,73.60
2023-04-05T10:38:27.191Z,73.00
2023-04-05T10:40:57.223Z,73.50
2023-04-05T10:43:26.904Z,73.10
2023-04-05T10:45:55.644Z,73.30
2023-04-05T10:48:44.448Z,73.00
2023-04-05T10:51:13.126Z,71.70
2023-04-05T10:53:41.236Z,70.10
2023-04-05T10:56:08.824Z,70.20
2023-04-05T10:58:36.857Z,69.50
2023-04-05T11:01:04.802Z,70.40
2023-04-05T11:03:48.739Z,71.70
2023-04-05T11:06:33.291Z,69.10
2023-04-05T11:09:21.106Z,66.00
2023-04-05T11:11:49.548Z,65.40
2023-04-05T11:14:27.624Z,65.70
2023-04-05T11:16:59.595Z,66.00
2023-04-05T11:19:54.215Z,66.00
2023-04-05T11:22:28.984Z,68.80
2023-04-05T11:24:58.297Z,66.30
2023-04-05T11:27:40.849Z,66.90
2023-04-05T11:30:08.289Z,67.10
2023-04-05T11:32:43.657Z,64.10
2023-04-05T11:35:15.309Z,67.40
2023-04-05T11:38:00.198Z,65.40
2023-04-05T11:40:40.908Z,68.50
2023-04-05T11:43:12.165Z,65.60
2023-04-05T11:45:40.003Z,63.80
2023-04-05T11:48:11.836Z,62.80
2023-04-05T11:50:39.664Z,63.60
2023-04-05T11:53:17.116Z,67.40
2023-04-05T11:55:50.483Z,66.50
2023-04-05T11:58:21.387Z,65.60
2023-04-05T12:01:01.682Z,64.00
2023-04-05T12:03:29.713Z,64.40
2023-04-05T12:05:58.047Z,64.00
2023-04-05T12:08:41.842Z,60.80
2023-04-05T12:11:11.452Z,63.30
2023-04-05T12:13:39.613Z,63.30
2023-04-05T12:16:08.103Z,62.00
2023-04-05T12:18:38.340Z,60.50
2023-04-05T12:21:09.321Z,61.10
2023-04-05T12:23:39.014Z,61.80
2023-04-05T12:26:07.977Z,62.60
2023-04-05T12:28:57.761Z,62.90
2023-04-05T12:31:44.869Z,63.80
2023-04-05T12:34:13.963Z,60.10
2023-04-05T12:36:45.981Z,61.80
2023-04-05T12:39:12.592Z,63.60
2023-04-05T12:41:39.430Z,62.50
2023-04-05T12:44:16.102Z,63.60
2023-04-05T12:46:46.705Z,63.70
2023-04-05T12:49:14.648Z,65.00
2023-04-05T12:51:46.060Z,63.80
2023-04-05T12:54:21.516Z,64.90
2023-04-05T12:56:50.669Z,63.20
2023-04-05T12:59:17.227Z,63.90
2023-04-05T13:01:43.798Z,62.80
2023-04-05T13:06:40.321Z,62.60
2023-04-05T13:09:06.834Z,62.20
2023-04-05T13:11:33.403Z,60.00
2023-04-05T13:14:00.173Z,60.10
2023-04-05T13:16:27.214Z,60.60
2023-04-05T13:18:53.808Z,59.90
2023-04-05T13:21:20.396Z,61.00
2023-04-05T13:23:46.893Z,59.30
2023-04-05T13:26:13.399Z,58.10
2023-04-05T13:28:39.997Z,58.70
2023-04-05T13:31:08.156Z,58.50
2023-04-05T13:33:34.873Z,59.70
2023-04-05T13:36:01.665Z,60.40
2023-04-05T13:38:28.345Z,60.20
2023-04-05T13:40:55.290Z,60.40
2023-04-05T13:43:21.814Z,58.70
2023-04-05T13:45:48.461Z,60.50
2023-04-05T13:48:15.009Z,59.70
2023-04-05T13:50:41.740Z,61.40
2023-04-05T13:53:08.478Z,60.00
2023-04-05T13:55:35.028Z,59.20
2023-04-05T13:58:01.559Z,59.40
2023-04-05T14:00:28.052Z,60.00
2023-04-05T14:02:54.753Z,58.80
2023-04-05T14:05:21.407Z,57.60
2023-04-05T14:07:49.811Z,57.80
2023-04-05T14:10:17.576Z,60.50
2023-04-05T14:12:44.485Z,60.70
2023-04-05T14:15:11.860Z,57.80
2023-04-05T14:17:38.496Z,58.30
2023-04-05T14:20:06.466Z,58.00
2023-04-05T14:22:33.093Z,56.90
2023-04-05T14:24:59.722Z,57.30
2023-04-05T14:27:28.258Z,57.10
2023-04-05T14:29:58.339Z,58.70
2023-04-05T14:32:25.750Z,58.30
2023-04-05T14:34:52.558Z,57.20
2023-04-05T14:37:19.211Z,57.90
2023-04-05T14:39:46.824Z,56.50
2023-04-05T14:42:13.420Z,58.30
2023-04-05T14:44:40.051Z,57.80
2023-04-05T14:47:06.936Z,59.00
2023-04-05T14:49:33.546Z,60.20
2023-04-05T14:52:00.280Z,59.40
2023-04-05T14:54:26.827Z,60.30
2023-04-05T14:56:53.439Z,58.80
2023-04-05T14:59:20.186Z,59.70
2023-04-05T15:01:47.309Z,60.50
2023-04-05T15:04:14.079Z,63.10
2023-04-05T15:06:40.748Z,63.50
2023-04-05T15:09:07.368Z,61.60
2023-04-05T15:11:38.602Z,60.20
2023-04-05T15:14:05.615Z,60.60
2023-04-05T15:16:32.320Z,61.00
2023-04-05T15:18:59.074Z,59.60
2023-04-05T15:21:25.887Z,59.10
2023-04-05T15:23:52.473Z,58.50
2023-04-05T15:26:19.131Z,58.00
2023-04-05T15:28:45.707Z,58.30
2023-04-05T15:31:12.345Z,58.40
2023-04-05T15:33:38.917Z,56.90
2023-04-05T15:36:07.073Z,59.30
2023-04-05T15:38:33.756Z,59.00
2023-04-05T15:41:00.345Z,60.50
2023-04-05T15:43:27.002Z,60.20
2023-04-05T15:45:53.676Z,59.20
2023-04-05T15:48:20.408Z,62.40
2023-04-05T15:50:47.178Z,58.70
2023-04-05T15:53:13.785Z,59.90
2023-04-05T15:55:40.363Z,61.60
2023-04-05T15:58:07.366Z,58.80
2023-04-05T16:00:34.064Z,58.20
2023-04-05T16:03:01.207Z,59.20
2023-04-05T16:05:27.955Z,60.00
2023-04-05T16:07:55.430Z,59.10
2023-04-05T16:10:22.237Z,60.40
2023-04-05T16:12:48.874Z,59.60
2023-04-05T16:15:15.476Z,60.10
2023-04-05T16:17:42.284Z,62.60
2023-04-05T16:20:09.223Z,63.70
2023-04-05T16:22:35.826Z,61.80
2023-04-05T16:25:02.397Z,61.60
2023-04-05T16:27:28.979Z,62.40
2023-04-05T16:29:55.610Z,61.70
2023-04-05T16:32:22.474Z,61.90
2023-04-05T16:34:49.045Z,60.20
2023-04-05T16:37:15.834Z,58.70
2023-04-05T16:39:42.415Z,62.00
2023-04-05T16:42:09.366Z,60.60
2023-04-05T16:44:35.958Z,63.10
2023-04-05T16:47:02.527Z,61.10
2023-04-05T16:49:29.121Z,61.80
2023-04-05T16:51:55.707Z,60.20
2023-04-05T16:54:22.269Z,61.40
2023-04-05T16:56:48.848Z,62.80
2023-04-05T16:59:15.601Z,64.60
2023-04-05T17:01:42.425Z,61.90
2023-04-05T17:04:09.131Z,65.70
2023-04-05T17:06:35.717Z,65.40
2023-04-05T17:09:03.327Z,67.00
2023-04-05T17:11:30.128Z,66.10
2023-04-05T17:13:59.141Z,68.40
2023-04-05T17:16:26.310Z,68.30
2023-04-05T17:18:52.997Z,67.20
2023-04-05T17:21:19.651Z,67.30
2023-04-05T17:23:46.221Z,69.00
2023-04-05T17:26:14.043Z,69.20
2023-04-05T17:28:40.692Z,69.20
2023-04-05T17:31:07.635Z,69.20
2023-04-05T17:33:34.274Z,67.60
2023-04-05T17:36:01.624Z,69.20
2023-04-05T17:38:28.325Z,71.00
2023-04-05T17:40:57.153Z,70.20
2023-04-05T17:43:24.148Z,69.20
2023-04-05T17:45:51.591Z,74.60
2023-04-05T17:48:18.803Z,72.70
2023-04-05T17:50:45.535Z,71.50
2023-04-05T17:53:13.791Z,69.40
2023-04-05T17:55:40.508Z,70.80
2023-04-05T17:58:07.104Z,70.70
2023-04-05T18:00:33.699Z,70.70
2023-04-05T18:03:07.175Z,71.50
2023-04-05T18:05:34.745Z,73.00
2023-04-05T18:08:01.540Z,74.20
2023-04-05T18:10:28.308Z,74.90
2023-04-05T18:12:55.043Z,76.70
2023-04-05T18:15:21.657Z,78.20
2023-04-05T18:17:48.287Z,80.70
2023-04-05T18:20:14.887Z,85.80
2023-04-05T18:22:41.582Z,86.00
2023-04-05T18:25:09.719Z,84.70
2023-04-05T18:27:36.695Z,86.30
2023-04-05T18:30:03.439Z,87.00
2023-04-05T18:32:30.250Z,87.80
2023-04-05T18:34:56.882Z,88.50
2023-04-05T18:37:23.816Z,88.20
2023-04-05T18:39:50.385Z,90.20
2023-04-05T18:42:17.228Z,91.10
2023-04-05T18:44:43.817Z,92.20
2023-04-05T18:47:10.425Z,93.60
2023-04-05T18:49:37.193Z,95.60
2023-04-05T18:52:03.843Z,98.00
2023-04-05T18:54:30.406Z,99.90
2023-04-05T18:56:57.176Z,99.90
2023-04-05T18:59:23.771Z,99.90
2023-04-05T19:01:51.562Z,99.90
2023-04-05T19:04:18.225Z,99.90
2023-04-05T19:06:45.012Z,99.90
2023-04-05T19:09:11.985Z,99.90
2023-04-05T19:11:38.609Z,99.90
2023-04-05T19:14:05.412Z,99.90
2023-04-05T19:16:32.094Z,99.90
2023-04-05T19:18:58.827Z,99.90
2023-04-05T19:21:25.866Z,99.90
2023-04-05T19:23:52.797Z,99.90
2023-04-05T19:26:21.856Z,99.90
2023-04-05T19:28:49.605Z,99.90
2023-04-05T19:31:16.297Z,99.90
2023-04-05T19:33:42.981Z,99.90
2023-04-05T19:36:09.565Z,99.90
2023-04-05T19:38:36.448Z,99.90
2023-04-05T19:41:03.313Z,99.90
2023-04-05T19:43:31.466Z,99.90
2023-04-05T19:46:00.330Z,99.90
2023-04-05T19:48:33.017Z,99.90
2023-04-05T19:51:02.190Z,99.90
2023-04-05T19:53:45.500Z,99.90
2023-04-05T19:56:23.506Z,99.90
2023-04-05T19:58:56.308Z,99.90
2023-04-05T20:01:37.752Z,99.90
2023-04-05T20:04:20.090Z,99.90
2023-04-05T20:06:53.139Z,99.90
2023-04-05T20:09:26.668Z,99.90
2023-04-05T20:12:01.776Z,99.90
2023-04-05T20:14:30.569Z,99.90
2023-04-05T20:16:58.330Z,99.90
2023-04-05T20:19:30.765Z,99.90
2023-04-05T20:21:58.608Z,99.90
2023-04-05T20:24:27.185Z,99.90
2023-04-05T20:26:56.601Z,99.90
2023-04-05T20:29:28.356Z,99.90
2023-04-05T20:31:55.472Z,99.90
2023-04-05T20:34:34.158Z,99.90
2023-04-05T20:37:02.602Z,99.90
2023-04-05T20:39:30.149Z,99.90
2023-04-05T20:41:57.094Z,99.90
2023-04-05T20:44:24.713Z,99.90
2023-04-05T20:46:53.764Z,99.90
2023-04-05T20:49:24.137Z,99.90
2023-04-05T20:51:51.149Z,99.90
2023-04-05T20:54:19.771Z,99.90
2023-04-05T20:56:46.919Z,99.90
2023-04-05T20:59:14.588Z,99.90
2023-04-05T21:01:42.716Z,99.90
2023-04-05T21:04:09.842Z,99.90
2023-04-05T21:06:37.459Z,99.90
2023-04-05T21:09:04.363Z,99.90
2023-04-05T21:11:30.976Z,99.90
2023-04-05T21:13:57.638Z,99.90
2023-04-05T21:16:24.457Z,99.90
2023-04-05T21:18:51.124Z,99.90
2023-04-05T21:21:17.769Z,99.90
2023-04-05T21:23:44.609Z,99.90
2023-04-05T21:26:11.172Z,99.90
2023-04-05T21:28:37.997Z,99.90
2023-04-05T21:31:04.611Z,99.90
2023-04-05T21:33:31.767Z,99.90
2023-04-05T21:35:58.486Z,99.90
2023-04-05T21:38:25.136Z,99.90
2023-04-05T21:40:51.943Z,99.90
2023-04-05T21:43:18.543Z,99.90
2023-04-05T21:45:46.333Z,99.90
2023-04-05T21:48:12.943Z,99.90
2023-04-05T21:50:39.591Z,99.90
2023-04-05T21:53:07.225Z,99.90
2023-04-05T21:55:33.931Z,99.90
2023-04-05T21:58:00.737Z,99.90
2023-04-05T22:00:27.824Z,99.90
2023-04-05T22:02:54.443Z,99.90
2023-04-05T22:05:33.806Z,99.90
2023-04-05T22:08:03.525Z,99.90
2023-04-05T22:10:30.216Z,99.90
2023-04-05T22:12:56.800Z,99.90
2023-04-05T22:15:23.389Z,99.90
2023-04-05T22:17:49.988Z,99.90
2023-04-05T22:20:16.770Z,99.90
2023-04-05T22:22:43.328Z,99.90
2023-04-05T22:25:10.052Z,99.90
2023-04-05T22:27:36.614Z,99.90
2023-04-05T22:30:04.665Z,99.90
2023-04-05T22:32:31.395Z,99.90
2023-04-05T22:34:58.049Z,99.90
2023-04-05T22:37:24.845Z,99.90
2023-04-05T22:39:51.419Z,99.90
2023-04-05T22:42:17.983Z,99.90
2023-04-05T22:44:44.558Z,99.90
2023-04-05T22:47:11.113Z,99.90
2023-04-05T22:49:37.933Z,99.90
2023-04-05T22:52:04.503Z,99.90
2023-04-05T22:54:31.202Z,99.90
2023-04-05T22:56:57.772Z,99.90
2023-04-05T22:59:24.579Z,99.90
2023-04-05T23:01:51.313Z,99.90
2023-04-05T23:04:17.961Z,99.90
2023-04-05T23:06:44.565Z,99.90
2023-04-05T23:09:11.343Z,99.90
2023-04-05T23:11:38.154Z,99.90
2023-04-05T23:14:04.767Z,99.90
2023-04-05T23:16:31.354Z,99.90
2023-04-05T23:18:57.996Z,99.90
2023-04-05T23:21:24.703Z,99.90
2023-04-05T23:23:51.488Z,99.90
2023-04-05T23:26:18.037Z,99.90
2023-04-05T23:28:44.615Z,99.90
2023-04-05T23:31:11.220Z,99.90
2023-04-05T23:33:37.840Z,99.90
2023-04-05T23:36:04.790Z,99.90
2023-04-05T23:38:31.476Z,99.90
2023-04-05T23:40:58.013Z,99.90
2023-04-05T23:43:24.591Z,99.90
2023-04-05T23:45:51.126Z,99.90
2023-04-05T23:48:17.675Z,99.90
2023-04-05T23:50:44.236Z,99.90
2023-04-05T23:53:11.092Z,99.90
2023-04-05T23:55:40.335Z,99.90
2023-04-05T23:58:07.945Z,99.90
